Torm Republican — OYNE2 — position and weather

sailwx.info

Track history (hours):
 
Tides and Currents Weather Stations Pressure Air Temp Water Temp Dewpoint Dewpoint Depression Visibility Wind Speed Wind Dir Waves Ship Positions

Torm Republican

Last reported at 2014-Jul-12 06:33 UTC. Time now 2014-Jul-24 02:03 UTC.
Position S 04°56' E 011°44'.
Warning: this ship's position is 11 days out of date.

Length 183 m; draft 8 m.

Type: Ship (hazmat cat A). MMSI: 220560000.

Date/timePositionNaut miles runAvg speedWind from/ knotsBaromVisibWave heightAir tempDewpointWater temp
2014-Jul-12 06:33S 04°56' E 011°44'0 0.0
2014-Jul-12 05:33S 04°56' E 011°44'0 0.0
2014-Jul-12 04:27S 04°56' E 011°44'0 0.0
2014-Jul-12 03:09S 04°56' E 011°44'0 0.0
2014-Jul-12 02:33S 04°56' E 011°44'0 0.0
2014-Jul-12 01:33S 04°56' E 011°44'0 0.0
2014-Jul-12 00:33S 04°56' E 011°44'0 0.0
2014-Jul-11 23:33S 04°56' E 011°44'0 0.0
2014-Jul-11 22:33S 04°56' E 011°44'0 0.0
2014-Jul-11 21:33S 04°56' E 011°44'0 0.1
2014-Jul-11 20:33S 04°56' E 011°44'9 8.6
2014-Jul-11 19:32S 05°04' E 011°42'1211.7
2014-Jul-11 18:33S 05°05' E 011°30'1212.0
2014-Jul-11 17:33S 05°06' E 011°18'41 4.4
2014-Jul-11 08:08S 05°12' E 010°37'5 1.0
2014-Jul-11 03:16S 05°10' E 010°42'3 0.7
2014-Jul-10 23:03S 05°08' E 010°44'2 1.1
2014-Jul-10 21:16S 05°08' E 010°46'2 1.0
2014-Jul-10 19:22S 05°08' E 010°48'46 9.2
2014-Jul-10 14:23S 05°41' E 011°19'40 0.8
2014-Jul-08 14:17S 05°03' E 011°30'1911.0
2014-Jul-08 12:32S 04°49' E 011°43'8 7.7
2014-Jul-08 11:33S 04°47' E 011°50'0 0.1
2014-Jul-08 10:18S 04°47' E 011°50'0 0.0
2014-Jul-08 09:30S 04°47' E 011°50'0 0.0
2014-Jul-08 08:12S 04°47' E 011°50'0 0.0
2014-Jul-08 06:24S 04°47' E 011°50'0 0.0
2014-Jul-08 05:30S 04°47' E 011°50'0 0.0
2014-Jul-08 04:18S 04°47' E 011°50'0 0.0
2014-Jul-08 03:30S 04°47' E 011°50'0 0.0
2014-Jul-08 02:30S 04°47' E 011°50'0 0.0
2014-Jul-08 01:30S 04°47' E 011°50'0 0.0
2014-Jul-08 00:23S 04°47' E 011°50'0 0.0
2014-Jul-07 23:17S 04°47' E 011°50'0 0.0
2014-Jul-07 22:29S 04°47' E 011°50'0 0.0
2014-Jul-07 21:29S 04°47' E 011°50'0 0.0
2014-Jul-07 20:29S 04°47' E 011°50'0 0.0
2014-Jul-07 19:23S 04°47' E 011°50'0 0.0
2014-Jul-07 18:29S 04°47' E 011°50'0 0.0
2014-Jul-07 17:23S 04°47' E 011°50'0 0.0
2014-Jul-07 16:29S 04°47' E 011°50'0 0.0
2014-Jul-07 15:29S 04°47' E 011°50'0 0.0
2014-Jul-07 14:29S 04°47' E 011°50'0 0.0
2014-Jul-07 13:29S 04°47' E 011°50'0 0.0
2014-Jul-07 12:29S 04°47' E 011°50'0 0.0
2014-Jul-07 11:29S 04°47' E 011°50'0 0.0
2014-Jul-07 10:23S 04°47' E 011°50'0 0.0
2014-Jul-07 09:23S 04°47' E 011°50'0 0.0
2014-Jul-07 08:29S 04°47' E 011°50'0 0.0
2014-Jul-07 07:29S 04°47' E 011°50'0 0.0
2014-Jul-06 14:23S 04°47' E 011°50'0 0.0
2014-Jul-06 13:11S 04°47' E 011°50'0 0.0
2014-Jul-06 12:29S 04°47' E 011°50'0 0.0
2014-Jul-06 10:28S 04°47' E 011°50'0 0.0
2014-Jul-06 09:28S 04°47' E 011°50'0 0.0
2014-Jul-06 08:22S 04°47' E 011°50'0 0.0
2014-Jul-06 07:16S 04°47' E 011°50'0 0.0
2014-Jul-06 06:28S 04°47' E 011°50'0 0.0
2014-Jul-06 05:28S 04°47' E 011°50'0 0.0
2014-Jul-06 04:28S 04°47' E 011°50'0 0.0
2014-Jul-06 03:22S 04°47' E 011°50'0 0.0
2014-Jul-06 02:28S 04°47' E 011°50'0 0.0
2014-Jul-06 01:28S 04°47' E 011°50'0 0.0
2014-Jul-06 00:28S 04°47' E 011°50'0 0.0
2014-Jul-05 23:28S 04°47' E 011°50'0 0.0
2014-Jul-05 22:28S 04°47' E 011°50'0 0.0
2014-Jul-05 21:22S 04°47' E 011°50'0 0.0
2014-Jul-05 20:28S 04°47' E 011°50'0 0.0
2014-Jul-05 19:28S 04°47' E 011°50'0 0.0
2014-Jul-05 18:28S 04°47' E 011°50'0 0.0
2014-Jul-05 17:33S 04°47' E 011°50'5 4.9
2014-Jul-05 16:32S 04°45' E 011°45'0 0.3
2014-Jul-05 15:30S 04°45' E 011°45'0 0.0
2014-Jul-05 14:12S 04°45' E 011°45'0 0.0
2014-Jul-05 13:30S 04°45' E 011°45'0 0.0
2014-Jul-05 11:29S 04°45' E 011°45'0 0.0
2014-Jul-05 10:29S 04°45' E 011°45'0 0.0
2014-Jul-05 09:23S 04°45' E 011°45'0 0.0
2014-Jul-05 06:23S 04°45' E 011°45'0 0.0
2014-Jul-05 02:23S 04°45' E 011°45'0 0.0
2014-Jul-05 01:17S 04°45' E 011°45'0 0.0
2014-Jul-05 00:11S 04°45' E 011°45'0 0.0
2014-Jul-04 23:29S 04°45' E 011°45'0 0.0
2014-Jul-04 22:23S 04°45' E 011°45'0 0.0
2014-Jul-04 21:23S 04°45' E 011°45'0 0.0
2014-Jul-04 20:29S 04°45' E 011°45'0 0.0
2014-Jul-04 19:29S 04°45' E 011°45'0 0.0
2014-Jul-04 18:29S 04°45' E 011°45'0 0.0
2014-Jul-04 17:17S 04°45' E 011°45'0 0.0
2014-Jul-04 16:17S 04°45' E 011°45'0 0.0
2014-Jul-04 15:17S 04°45' E 011°45'0 0.0
2014-Jul-04 14:29S 04°45' E 011°45'0 0.0
2014-Jul-04 12:17S 04°45' E 011°45'0 0.0
2014-Jul-04 11:17S 04°45' E 011°45'0 0.0
2014-Jul-04 10:23S 04°45' E 011°45'0 0.0
2014-Jul-04 09:29S 04°45' E 011°45'0 0.0
2014-Jul-04 08:29S 04°45' E 011°45'0 0.0
2014-Jul-04 07:29S 04°45' E 011°45'0 0.0
2014-Jul-04 06:29S 04°45' E 011°45'53 8.8
2014-Jul-04 00:27S 05°31' E 011°18'1312.1
2014-Jul-03 23:20S 05°43' E 011°24'1012.8
2014-Jul-03 22:33S 05°49' E 011°32'1313.0
2014-Jul-03 21:32S 05°56' E 011°43'1312.7
2014-Jul-03 20:31S 05°59' E 011°56'1512.9
2014-Jul-03 19:20S 06°02' E 012°11'1312.0
2014-Jul-03 18:13S 06°03' E 012°24'  
Track history (hours):
 
Tides and Currents Weather Stations Pressure Air Temp Water Temp Dewpoint Dewpoint Depression Visibility Wind Speed Wind Dir Waves Ship Positions

Torm Republican

Last reported at 2014-Jul-12 06:33 UTC. Time now 2014-Jul-24 02:03 UTC.
Position S 04°56' E 011°44'.
Warning: this ship's position is 11 days out of date.

Length 183 m; draft 8 m.

Type: Ship (hazmat cat A). MMSI: 220560000.

Date/timePositionNaut miles runAvg speedWind from/ knotsBaromVisibWave heightAir tempDewpointWater temp
2014-Jul-12 06:33S 04°56' E 011°44'0 0.0
2014-Jul-12 05:33S 04°56' E 011°44'0 0.0
2014-Jul-12 04:27S 04°56' E 011°44'0 0.0
2014-Jul-12 03:09S 04°56' E 011°44'0 0.0
2014-Jul-12 02:33S 04°56' E 011°44'0 0.0
2014-Jul-12 01:33S 04°56' E 011°44'0 0.0
2014-Jul-12 00:33S 04°56' E 011°44'0 0.0
2014-Jul-11 23:33S 04°56' E 011°44'0 0.0
2014-Jul-11 22:33S 04°56' E 011°44'0 0.0
2014-Jul-11 21:33S 04°56' E 011°44'0 0.1
2014-Jul-11 20:33S 04°56' E 011°44'9 8.6
2014-Jul-11 19:32S 05°04' E 011°42'1211.7
2014-Jul-11 18:33S 05°05' E 011°30'1212.0
2014-Jul-11 17:33S 05°06' E 011°18'41 4.4
2014-Jul-11 08:08S 05°12' E 010°37'5 1.0
2014-Jul-11 03:16S 05°10' E 010°42'3 0.7
2014-Jul-10 23:03S 05°08' E 010°44'2 1.1
2014-Jul-10 21:16S 05°08' E 010°46'2 1.0
2014-Jul-10 19:22S 05°08' E 010°48'46 9.2
2014-Jul-10 14:23S 05°41' E 011°19'40 0.8
2014-Jul-08 14:17S 05°03' E 011°30'1911.0
2014-Jul-08 12:32S 04°49' E 011°43'8 7.7
2014-Jul-08 11:33S 04°47' E 011°50'0 0.1
2014-Jul-08 10:18S 04°47' E 011°50'0 0.0
2014-Jul-08 09:30S 04°47' E 011°50'0 0.0
2014-Jul-08 08:12S 04°47' E 011°50'0 0.0
2014-Jul-08 06:24S 04°47' E 011°50'0 0.0
2014-Jul-08 05:30S 04°47' E 011°50'0 0.0
2014-Jul-08 04:18S 04°47' E 011°50'0 0.0
2014-Jul-08 03:30S 04°47' E 011°50'0 0.0
2014-Jul-08 02:30S 04°47' E 011°50'0 0.0
2014-Jul-08 01:30S 04°47' E 011°50'0 0.0
2014-Jul-08 00:23S 04°47' E 011°50'0 0.0
2014-Jul-07 23:17S 04°47' E 011°50'0 0.0
2014-Jul-07 22:29S 04°47' E 011°50'0 0.0
2014-Jul-07 21:29S 04°47' E 011°50'0 0.0
2014-Jul-07 20:29S 04°47' E 011°50'0 0.0
2014-Jul-07 19:23S 04°47' E 011°50'0 0.0
2014-Jul-07 18:29S 04°47' E 011°50'0 0.0
2014-Jul-07 17:23S 04°47' E 011°50'0 0.0
2014-Jul-07 16:29S 04°47' E 011°50'0 0.0
2014-Jul-07 15:29S 04°47' E 011°50'0 0.0
2014-Jul-07 14:29S 04°47' E 011°50'0 0.0
2014-Jul-07 13:29S 04°47' E 011°50'0 0.0
2014-Jul-07 12:29S 04°47' E 011°50'0 0.0
2014-Jul-07 11:29S 04°47' E 011°50'0 0.0
2014-Jul-07 10:23S 04°47' E 011°50'0 0.0
2014-Jul-07 09:23S 04°47' E 011°50'0 0.0
2014-Jul-07 08:29S 04°47' E 011°50'0 0.0
2014-Jul-07 07:29S 04°47' E 011°50'0 0.0
2014-Jul-06 14:23S 04°47' E 011°50'0 0.0
2014-Jul-06 13:11S 04°47' E 011°50'0 0.0
2014-Jul-06 12:29S 04°47' E 011°50'0 0.0
2014-Jul-06 10:28S 04°47' E 011°50'0 0.0
2014-Jul-06 09:28S 04°47' E 011°50'0 0.0
2014-Jul-06 08:22S 04°47' E 011°50'0 0.0
2014-Jul-06 07:16S 04°47' E 011°50'0 0.0
2014-Jul-06 06:28S 04°47' E 011°50'0 0.0
2014-Jul-06 05:28S 04°47' E 011°50'0 0.0
2014-Jul-06 04:28S 04°47' E 011°50'0 0.0
2014-Jul-06 03:22S 04°47' E 011°50'0 0.0
2014-Jul-06 02:28S 04°47' E 011°50'0 0.0
2014-Jul-06 01:28S 04°47' E 011°50'0 0.0
2014-Jul-06 00:28S 04°47' E 011°50'0 0.0
2014-Jul-05 23:28S 04°47' E 011°50'0 0.0
2014-Jul-05 22:28S 04°47' E 011°50'0 0.0
2014-Jul-05 21:22S 04°47' E 011°50'0 0.0
2014-Jul-05 20:28S 04°47' E 011°50'0 0.0
2014-Jul-05 19:28S 04°47' E 011°50'0 0.0
2014-Jul-05 18:28S 04°47' E 011°50'0 0.0
2014-Jul-05 17:33S 04°47' E 011°50'5 4.9
2014-Jul-05 16:32S 04°45' E 011°45'0 0.3
2014-Jul-05 15:30S 04°45' E 011°45'0 0.0
2014-Jul-05 14:12S 04°45' E 011°45'0 0.0
2014-Jul-05 13:30S 04°45' E 011°45'0 0.0
2014-Jul-05 11:29S 04°45' E 011°45'0 0.0
2014-Jul-05 10:29S 04°45' E 011°45'0 0.0
2014-Jul-05 09:23S 04°45' E 011°45'0 0.0
2014-Jul-05 06:23S 04°45' E 011°45'0 0.0
2014-Jul-05 02:23S 04°45' E 011°45'0 0.0
2014-Jul-05 01:17S 04°45' E 011°45'0 0.0
2014-Jul-05 00:11S 04°45' E 011°45'0 0.0
2014-Jul-04 23:29S 04°45' E 011°45'0 0.0
2014-Jul-04 22:23S 04°45' E 011°45'0 0.0
2014-Jul-04 21:23S 04°45' E 011°45'0 0.0
2014-Jul-04 20:29S 04°45' E 011°45'0 0.0
2014-Jul-04 19:29S 04°45' E 011°45'0 0.0
2014-Jul-04 18:29S 04°45' E 011°45'0 0.0
2014-Jul-04 17:17S 04°45' E 011°45'0 0.0
2014-Jul-04 16:17S 04°45' E 011°45'0 0.0
2014-Jul-04 15:17S 04°45' E 011°45'0 0.0
2014-Jul-04 14:29S 04°45' E 011°45'0 0.0
2014-Jul-04 12:17S 04°45' E 011°45'0 0.0
2014-Jul-04 11:17S 04°45' E 011°45'0 0.0
2014-Jul-04 10:23S 04°45' E 011°45'0 0.0
2014-Jul-04 09:29S 04°45' E 011°45'0 0.0
2014-Jul-04 08:29S 04°45' E 011°45'0 0.0
2014-Jul-04 07:29S 04°45' E 011°45'0 0.0
2014-Jul-04 06:29S 04°45' E 011°45'53 8.8
2014-Jul-04 00:27S 05°31' E 011°18'1312.1
2014-Jul-03 23:20S 05°43' E 011°24'1012.8
2014-Jul-03 22:33S 05°49' E 011°32'1313.0
2014-Jul-03 21:32S 05°56' E 011°43'1312.7
2014-Jul-03 20:31S 05°59' E 011°56'1512.9
2014-Jul-03 19:20S 06°02' E 012°11'1312.0
2014-Jul-03 18:13S 06°03' E 012°24'  

Dump ship's entire track history